sensor_id;sensor_type;location;lat;lon;timestamp;P1;durP1;ratioP1;P2;durP2;ratioP2
27313;SDS011;14800;48.174;9.798;2023-07-13T00:00:27;6.15;;;5.35;;
27313;SDS011;14800;48.174;9.798;2023-07-13T00:02:53;9.38;;;5.47;;
27313;SDS011;14800;48.174;9.798;2023-07-13T00:05:22;8.40;;;5.57;;
27313;SDS011;14800;48.174;9.798;2023-07-13T00:07:49;5.93;;;4.97;;
27313;SDS011;14800;48.174;9.798;2023-07-13T00:10:15;10.90;;;5.78;;
27313;SDS011;14800;48.174;9.798;2023-07-13T00:12:42;8.68;;;5.65;;
27313;SDS011;14800;48.174;9.798;2023-07-13T00:15:20;10.48;;;6.43;;
27313;SDS011;14800;48.174;9.798;2023-07-13T00:17:57;7.97;;;5.88;;
27313;SDS011;14800;48.174;9.798;2023-07-13T00:20:23;10.05;;;6.43;;
27313;SDS011;14800;48.174;9.798;2023-07-13T00:22:50;11.68;;;6.63;;
27313;SDS011;14800;48.174;9.798;2023-07-13T00:25:18;8.00;;;5.97;;
27313;SDS011;14800;48.174;9.798;2023-07-13T00:27:49;10.00;;;5.75;;
27313;SDS011;14800;48.174;9.798;2023-07-13T00:30:15;7.75;;;5.15;;
27313;SDS011;14800;48.174;9.798;2023-07-13T00:32:44;8.18;;;4.57;;
27313;SDS011;14800;48.174;9.798;2023-07-13T00:35:10;10.10;;;4.80;;
27313;SDS011;14800;48.174;9.798;2023-07-13T00:37:38;7.90;;;4.45;;
27313;SDS011;14800;48.174;9.798;2023-07-13T00:40:04;5.85;;;4.60;;
27313;SDS011;14800;48.174;9.798;2023-07-13T00:42:30;6.68;;;4.55;;
27313;SDS011;14800;48.174;9.798;2023-07-13T00:47:37;8.25;;;4.13;;
27313;SDS011;14800;48.174;9.798;2023-07-13T00:50:04;8.05;;;4.28;;
27313;SDS011;14800;48.174;9.798;2023-07-13T00:52:33;5.15;;;4.10;;
27313;SDS011;14800;48.174;9.798;2023-07-13T00:55:01;5.35;;;3.75;;
27313;SDS011;14800;48.174;9.798;2023-07-13T00:57:27;4.85;;;4.00;;
27313;SDS011;14800;48.174;9.798;2023-07-13T00:59:54;5.78;;;3.70;;
27313;SDS011;14800;48.174;9.798;2023-07-13T01:02:22;3.35;;;3.05;;
27313;SDS011;14800;48.174;9.798;2023-07-13T01:04:49;3.08;;;2.78;;
27313;SDS011;14800;48.174;9.798;2023-07-13T01:07:15;4.70;;;2.40;;
27313;SDS011;14800;48.174;9.798;2023-07-13T01:09:43;2.53;;;2.13;;
27313;SDS011;14800;48.174;9.798;2023-07-13T01:12:10;5.22;;;2.10;;
27313;SDS011;14800;48.174;9.798;2023-07-13T01:14:36;7.90;;;2.03;;
27313;SDS011;14800;48.174;9.798;2023-07-13T01:17:02;3.45;;;2.05;;
27313;SDS011;14800;48.174;9.798;2023-07-13T01:22:01;3.40;;;1.73;;
27313;SDS011;14800;48.174;9.798;2023-07-13T01:24:38;2.63;;;1.50;;
27313;SDS011;14800;48.174;9.798;2023-07-13T01:27:06;3.05;;;1.38;;
27313;SDS011;14800;48.174;9.798;2023-07-13T01:29:33;1.63;;;1.52;;
27313;SDS011;14800;48.174;9.798;2023-07-13T01:32:00;5.28;;;1.90;;
27313;SDS011;14800;48.174;9.798;2023-07-13T01:34:26;5.82;;;1.92;;
27313;SDS011;14800;48.174;9.798;2023-07-13T01:36:52;2.65;;;1.80;;
27313;SDS011;14800;48.174;9.798;2023-07-13T01:39:19;3.03;;;1.70;;
27313;SDS011;14800;48.174;9.798;2023-07-13T01:41:46;3.60;;;1.75;;
27313;SDS011;14800;48.174;9.798;2023-07-13T01:44:11;2.63;;;1.65;;
27313;SDS011;14800;48.174;9.798;2023-07-13T01:46:37;2.33;;;1.90;;
27313;SDS011;14800;48.174;9.798;2023-07-13T01:49:02;2.60;;;1.77;;
27313;SDS011;14800;48.174;9.798;2023-07-13T01:51:31;3.92;;;2.00;;
27313;SDS011;14800;48.174;9.798;2023-07-13T01:53:56;4.68;;;1.85;;
27313;SDS011;14800;48.174;9.798;2023-07-13T01:56:22;2.70;;;1.83;;
27313;SDS011;14800;48.174;9.798;2023-07-13T01:58:48;4.10;;;1.92;;
27313;SDS011;14800;48.174;9.798;2023-07-13T02:01:14;4.65;;;1.67;;
27313;SDS011;14800;48.174;9.798;2023-07-13T02:03:39;3.83;;;2.05;;
27313;SDS011;14800;48.174;9.798;2023-07-13T02:06:05;2.88;;;1.73;;
27313;SDS011;14800;48.174;9.798;2023-07-13T02:08:32;3.28;;;1.77;;
27313;SDS011;14800;48.174;9.798;2023-07-13T02:10:57;3.08;;;2.25;;
27313;SDS011;14800;48.174;9.798;2023-07-13T02:13:23;2.47;;;1.98;;
27313;SDS011;14800;48.174;9.798;2023-07-13T02:15:52;2.58;;;2.10;;
27313;SDS011;14800;48.174;9.798;2023-07-13T02:18:18;2.50;;;1.80;;
27313;SDS011;14800;48.174;9.798;2023-07-13T02:20:43;3.65;;;2.30;;
27313;SDS011;14800;48.174;9.798;2023-07-13T02:23:09;2.58;;;2.20;;
27313;SDS011;14800;48.174;9.798;2023-07-13T02:25:35;3.58;;;2.40;;
27313;SDS011;14800;48.174;9.798;2023-07-13T02:28:01;3.80;;;2.00;;
27313;SDS011;14800;48.174;9.798;2023-07-13T02:30:27;2.70;;;2.17;;
27313;SDS011;14800;48.174;9.798;2023-07-13T02:32:55;3.35;;;2.20;;
27313;SDS011;14800;48.174;9.798;2023-07-13T02:35:21;2.03;;;1.90;;
27313;SDS011;14800;48.174;9.798;2023-07-13T02:37:46;4.38;;;2.25;;
27313;SDS011;14800;48.174;9.798;2023-07-13T02:40:12;2.50;;;2.00;;
27313;SDS011;14800;48.174;9.798;2023-07-13T02:42:38;2.55;;;1.73;;
27313;SDS011;14800;48.174;9.798;2023-07-13T02:45:04;2.33;;;2.03;;
27313;SDS011;14800;48.174;9.798;2023-07-13T02:47:31;3.72;;;1.85;;
27313;SDS011;14800;48.174;9.798;2023-07-13T02:49:57;4.05;;;1.88;;
27313;SDS011;14800;48.174;9.798;2023-07-13T02:52:23;4.18;;;1.98;;
27313;SDS011;14800;48.174;9.798;2023-07-13T02:54:49;6.35;;;2.03;;
27313;SDS011;14800;48.174;9.798;2023-07-13T02:57:15;8.60;;;2.40;;
27313;SDS011;14800;48.174;9.798;2023-07-13T02:59:41;5.45;;;1.85;;
27313;SDS011;14800;48.174;9.798;2023-07-13T03:02:06;2.72;;;2.17;;
27313;SDS011;14800;48.174;9.798;2023-07-13T03:04:36;3.45;;;2.00;;
27313;SDS011;14800;48.174;9.798;2023-07-13T03:07:02;2.00;;;1.80;;
27313;SDS011;14800;48.174;9.798;2023-07-13T03:09:28;2.58;;;1.80;;
27313;SDS011;14800;48.174;9.798;2023-07-13T03:11:54;2.28;;;1.60;;
27313;SDS011;14800;48.174;9.798;2023-07-13T03:14:20;1.88;;;1.65;;
27313;SDS011;14800;48.174;9.798;2023-07-13T03:16:49;4.88;;;1.63;;
27313;SDS011;14800;48.174;9.798;2023-07-13T03:19:15;3.03;;;1.48;;
27313;SDS011;14800;48.174;9.798;2023-07-13T03:21:41;3.75;;;1.77;;
27313;SDS011;14800;48.174;9.798;2023-07-13T03:24:06;4.50;;;2.08;;
27313;SDS011;14800;48.174;9.798;2023-07-13T03:26:32;3.45;;;1.60;;
27313;SDS011;14800;48.174;9.798;2023-07-13T03:28:58;4.75;;;1.85;;
27313;SDS011;14800;48.174;9.798;2023-07-13T03:31:27;2.03;;;1.48;;
27313;SDS011;14800;48.174;9.798;2023-07-13T03:33:55;2.78;;;1.70;;
27313;SDS011;14800;48.174;9.798;2023-07-13T03:36:23;5.53;;;1.98;;
27313;SDS011;14800;48.174;9.798;2023-07-13T03:38:51;3.53;;;1.50;;
27313;SDS011;14800;48.174;9.798;2023-07-13T03:41:19;3.90;;;1.60;;
27313;SDS011;14800;48.174;9.798;2023-07-13T03:43:45;1.80;;;1.60;;
27313;SDS011;14800;48.174;9.798;2023-07-13T03:46:13;4.45;;;1.77;;
27313;SDS011;14800;48.174;9.798;2023-07-13T03:48:40;2.35;;;1.50;;
27313;SDS011;14800;48.174;9.798;2023-07-13T03:51:07;3.53;;;1.80;;
27313;SDS011;14800;48.174;9.798;2023-07-13T03:53:37;2.17;;;1.55;;
27313;SDS011;14800;48.174;9.798;2023-07-13T03:56:04;3.72;;;1.48;;
27313;SDS011;14800;48.174;9.798;2023-07-13T03:58:31;3.17;;;1.45;;
27313;SDS011;14800;48.174;9.798;2023-07-13T04:00:59;3.42;;;1.30;;
27313;SDS011;14800;48.174;9.798;2023-07-13T04:03:25;3.22;;;1.65;;
27313;SDS011;14800;48.174;9.798;2023-07-13T04:05:53;2.20;;;1.55;;
27313;SDS011;14800;48.174;9.798;2023-07-13T04:08:31;3.53;;;1.40;;
27313;SDS011;14800;48.174;9.798;2023-07-13T04:10:59;2.08;;;1.30;;
27313;SDS011;14800;48.174;9.798;2023-07-13T04:13:25;2.85;;;1.20;;
27313;SDS011;14800;48.174;9.798;2023-07-13T04:15:51;3.47;;;1.50;;
27313;SDS011;14800;48.174;9.798;2023-07-13T04:18:18;3.33;;;1.45;;
27313;SDS011;14800;48.174;9.798;2023-07-13T04:20:45;2.85;;;1.33;;
27313;SDS011;14800;48.174;9.798;2023-07-13T04:23:11;2.70;;;1.30;;
27313;SDS011;14800;48.174;9.798;2023-07-13T04:25:37;2.92;;;1.25;;
27313;SDS011;14800;48.174;9.798;2023-07-13T04:28:03;3.47;;;1.05;;
27313;SDS011;14800;48.174;9.798;2023-07-13T04:30:32;1.67;;;1.30;;
27313;SDS011;14800;48.174;9.798;2023-07-13T04:32:57;4.47;;;1.40;;
27313;SDS011;14800;48.174;9.798;2023-07-13T04:35:23;2.95;;;1.23;;
27313;SDS011;14800;48.174;9.798;2023-07-13T04:37:49;2.35;;;1.20;;
27313;SDS011;14800;48.174;9.798;2023-07-13T04:40:16;1.67;;;1.30;;
27313;SDS011;14800;48.174;9.798;2023-07-13T04:42:42;3.42;;;1.10;;
27313;SDS011;14800;48.174;9.798;2023-07-13T04:45:11;3.88;;;1.35;;
27313;SDS011;14800;48.174;9.798;2023-07-13T04:47:38;1.92;;;1.38;;
27313;SDS011;14800;48.174;9.798;2023-07-13T04:50:04;2.28;;;1.70;;
27313;SDS011;14800;48.174;9.798;2023-07-13T04:52:31;1.40;;;1.30;;
27313;SDS011;14800;48.174;9.798;2023-07-13T04:54:58;2.00;;;1.27;;
27313;SDS011;14800;48.174;9.798;2023-07-13T04:57:24;2.67;;;1.33;;
27313;SDS011;14800;48.174;9.798;2023-07-13T04:59:50;2.80;;;1.30;;
27313;SDS011;14800;48.174;9.798;2023-07-13T05:02:15;2.45;;;1.50;;
27313;SDS011;14800;48.174;9.798;2023-07-13T05:04:41;1.83;;;1.30;;
27313;SDS011;14800;48.174;9.798;2023-07-13T05:07:07;4.45;;;1.52;;
27313;SDS011;14800;48.174;9.798;2023-07-13T05:09:32;2.28;;;1.40;;
27313;SDS011;14800;48.174;9.798;2023-07-13T05:11:58;2.30;;;1.30;;
27313;SDS011;14800;48.174;9.798;2023-07-13T05:14:23;5.35;;;1.35;;
27313;SDS011;14800;48.174;9.798;2023-07-13T05:16:49;1.45;;;1.35;;
27313;SDS011;14800;48.174;9.798;2023-07-13T05:19:14;1.20;;;1.10;;
27313;SDS011;14800;48.174;9.798;2023-07-13T05:21:40;3.67;;;1.67;;
27313;SDS011;14800;48.174;9.798;2023-07-13T05:24:06;3.55;;;1.70;;
27313;SDS011;14800;48.174;9.798;2023-07-13T05:26:32;2.67;;;1.60;;
27313;SDS011;14800;48.174;9.798;2023-07-13T05:28:57;1.50;;;1.35;;
27313;SDS011;14800;48.174;9.798;2023-07-13T05:31:23;1.42;;;1.25;;
27313;SDS011;14800;48.174;9.798;2023-07-13T05:33:49;2.80;;;1.58;;
27313;SDS011;14800;48.174;9.798;2023-07-13T05:36:14;5.40;;;1.42;;
27313;SDS011;14800;48.174;9.798;2023-07-13T05:38:43;3.55;;;1.50;;
27313;SDS011;14800;48.174;9.798;2023-07-13T05:41:08;1.50;;;1.10;;
27313;SDS011;14800;48.174;9.798;2023-07-13T05:43:34;3.08;;;1.20;;
27313;SDS011;14800;48.174;9.798;2023-07-13T05:45:59;1.98;;;1.50;;
27313;SDS011;14800;48.174;9.798;2023-07-13T05:48:25;1.63;;;1.10;;
27313;SDS011;14800;48.174;9.798;2023-07-13T05:50:51;4.18;;;1.45;;
27313;SDS011;14800;48.174;9.798;2023-07-13T05:53:22;2.78;;;1.38;;
27313;SDS011;14800;48.174;9.798;2023-07-13T05:55:47;2.05;;;1.45;;
27313;SDS011;14800;48.174;9.798;2023-07-13T05:58:15;2.60;;;1.52;;
27313;SDS011;14800;48.174;9.798;2023-07-13T06:00:42;1.55;;;1.30;;
27313;SDS011;14800;48.174;9.798;2023-07-13T06:03:08;2.80;;;1.45;;
27313;SDS011;14800;48.174;9.798;2023-07-13T06:05:34;2.30;;;1.10;;
27313;SDS011;14800;48.174;9.798;2023-07-13T06:08:01;2.25;;;1.58;;
27313;SDS011;14800;48.174;9.798;2023-07-13T06:10:26;2.95;;;1.45;;
27313;SDS011;14800;48.174;9.798;2023-07-13T06:12:52;2.70;;;1.15;;
27313;SDS011;14800;48.174;9.798;2023-07-13T06:15:17;4.10;;;1.83;;
27313;SDS011;14800;48.174;9.798;2023-07-13T06:17:43;2.40;;;1.33;;
27313;SDS011;14800;48.174;9.798;2023-07-13T06:20:08;1.88;;;1.13;;
27313;SDS011;14800;48.174;9.798;2023-07-13T06:22:34;3.28;;;1.13;;
27313;SDS011;14800;48.174;9.798;2023-07-13T06:25:00;2.53;;;1.13;;
27313;SDS011;14800;48.174;9.798;2023-07-13T06:27:28;2.97;;;1.10;;
27313;SDS011;14800;48.174;9.798;2023-07-13T06:29:54;2.45;;;1.00;;
27313;SDS011;14800;48.174;9.798;2023-07-13T06:32:19;2.00;;;1.40;;
27313;SDS011;14800;48.174;9.798;2023-07-13T06:34:45;2.95;;;1.15;;
27313;SDS011;14800;48.174;9.798;2023-07-13T06:37:11;4.45;;;1.15;;
27313;SDS011;14800;48.174;9.798;2023-07-13T06:39:37;4.60;;;1.50;;
27313;SDS011;14800;48.174;9.798;2023-07-13T06:42:02;3.30;;;1.20;;
27313;SDS011;14800;48.174;9.798;2023-07-13T06:44:28;2.83;;;1.10;;
27313;SDS011;14800;48.174;9.798;2023-07-13T06:46:53;2.85;;;1.50;;
27313;SDS011;14800;48.174;9.798;2023-07-13T06:49:19;3.22;;;1.23;;
27313;SDS011;14800;48.174;9.798;2023-07-13T06:51:47;5.68;;;1.48;;
27313;SDS011;14800;48.174;9.798;2023-07-13T06:54:13;1.95;;;1.13;;
27313;SDS011;14800;48.174;9.798;2023-07-13T06:56:38;3.42;;;1.20;;
27313;SDS011;14800;48.174;9.798;2023-07-13T06:59:04;3.55;;;1.30;;
27313;SDS011;14800;48.174;9.798;2023-07-13T07:01:30;2.08;;;1.20;;
27313;SDS011;14800;48.174;9.798;2023-07-13T07:03:55;3.10;;;1.15;;
27313;SDS011;14800;48.174;9.798;2023-07-13T07:06:22;1.45;;;1.20;;
27313;SDS011;14800;48.174;9.798;2023-07-13T07:08:49;6.43;;;1.50;;
27313;SDS011;14800;48.174;9.798;2023-07-13T07:11:24;3.55;;;1.45;;
27313;SDS011;14800;48.174;9.798;2023-07-13T07:13:51;3.75;;;1.27;;
27313;SDS011;14800;48.174;9.798;2023-07-13T07:16:18;2.92;;;1.20;;
27313;SDS011;14800;48.174;9.798;2023-07-13T07:18:44;2.33;;;1.27;;
27313;SDS011;14800;48.174;9.798;2023-07-13T07:21:11;1.63;;;1.25;;
27313;SDS011;14800;48.174;9.798;2023-07-13T07:23:37;4.60;;;1.23;;
27313;SDS011;14800;48.174;9.798;2023-07-13T07:26:02;2.60;;;1.27;;
27313;SDS011;14800;48.174;9.798;2023-07-13T07:28:28;5.28;;;1.50;;
27313;SDS011;14800;48.174;9.798;2023-07-13T07:30:55;2.50;;;1.10;;
27313;SDS011;14800;48.174;9.798;2023-07-13T07:33:22;1.25;;;0.82;;
27313;SDS011;14800;48.174;9.798;2023-07-13T07:35:48;1.67;;;1.10;;
27313;SDS011;14800;48.174;9.798;2023-07-13T07:38:13;3.25;;;1.27;;
27313;SDS011;14800;48.174;9.798;2023-07-13T07:40:40;4.82;;;1.05;;
27313;SDS011;14800;48.174;9.798;2023-07-13T07:43:06;2.67;;;1.08;;
27313;SDS011;14800;48.174;9.798;2023-07-13T07:45:36;1.88;;;1.20;;
27313;SDS011;14800;48.174;9.798;2023-07-13T07:48:02;2.17;;;0.90;;
27313;SDS011;14800;48.174;9.798;2023-07-13T07:50:29;4.07;;;1.10;;
27313;SDS011;14800;48.174;9.798;2023-07-13T07:52:55;3.10;;;1.05;;
27313;SDS011;14800;48.174;9.798;2023-07-13T07:55:24;4.10;;;1.05;;
27313;SDS011;14800;48.174;9.798;2023-07-13T07:57:52;2.10;;;1.00;;
27313;SDS011;14800;48.174;9.798;2023-07-13T08:00:20;2.67;;;1.10;;
27313;SDS011;14800;48.174;9.798;2023-07-13T08:02:46;2.38;;;1.00;;
27313;SDS011;14800;48.174;9.798;2023-07-13T08:05:13;2.40;;;1.10;;
27313;SDS011;14800;48.174;9.798;2023-07-13T08:07:41;1.75;;;0.98;;
27313;SDS011;14800;48.174;9.798;2023-07-13T08:10:07;3.08;;;1.20;;
27313;SDS011;14800;48.174;9.798;2023-07-13T08:12:34;1.52;;;0.98;;
27313;SDS011;14800;48.174;9.798;2023-07-13T08:15:04;2.95;;;1.17;;
27313;SDS011;14800;48.174;9.798;2023-07-13T08:17:31;4.53;;;0.95;;
27313;SDS011;14800;48.174;9.798;2023-07-13T08:19:57;1.83;;;0.95;;
27313;SDS011;14800;48.174;9.798;2023-07-13T08:22:23;1.90;;;1.05;;
27313;SDS011;14800;48.174;9.798;2023-07-13T08:24:48;2.25;;;0.90;;
27313;SDS011;14800;48.174;9.798;2023-07-13T08:27:20;2.42;;;0.95;;
27313;SDS011;14800;48.174;9.798;2023-07-13T08:29:47;3.42;;;1.10;;
27313;SDS011;14800;48.174;9.798;2023-07-13T08:32:13;3.30;;;1.00;;
27313;SDS011;14800;48.174;9.798;2023-07-13T08:34:39;2.10;;;1.13;;
27313;SDS011;14800;48.174;9.798;2023-07-13T08:37:05;1.67;;;0.90;;
27313;SDS011;14800;48.174;9.798;2023-07-13T08:39:31;2.08;;;0.73;;
27313;SDS011;14800;48.174;9.798;2023-07-13T08:41:59;3.47;;;1.10;;
27313;SDS011;14800;48.174;9.798;2023-07-13T08:44:34;2.20;;;0.90;;
27313;SDS011;14800;48.174;9.798;2023-07-13T08:47:22;1.83;;;0.70;;
27313;SDS011;14800;48.174;9.798;2023-07-13T08:49:49;1.67;;;0.80;;
27313;SDS011;14800;48.174;9.798;2023-07-13T08:52:28;1.92;;;0.95;;
27313;SDS011;14800;48.174;9.798;2023-07-13T08:55:13;5.22;;;0.88;;
27313;SDS011;14800;48.174;9.798;2023-07-13T08:57:42;1.55;;;0.85;;
27313;SDS011;14800;48.174;9.798;2023-07-13T09:00:12;6.55;;;0.80;;
27313;SDS011;14800;48.174;9.798;2023-07-13T09:05:31;2.53;;;0.98;;
27313;SDS011;14800;48.174;9.798;2023-07-13T09:10:57;3.45;;;0.73;;
27313;SDS011;14800;48.174;9.798;2023-07-13T09:16:13;2.25;;;0.90;;
27313;SDS011;14800;48.174;9.798;2023-07-13T09:18:41;3.35;;;1.85;;
27313;SDS011;14800;48.174;9.798;2023-07-13T09:27:00;1.75;;;0.73;;
27313;SDS011;14800;48.174;9.798;2023-07-13T09:29:30;1.65;;;0.77;;
27313;SDS011;14800;48.174;9.798;2023-07-13T09:32:01;8.05;;;0.95;;
27313;SDS011;14800;48.174;9.798;2023-07-13T09:34:29;1.20;;;0.75;;
27313;SDS011;14800;48.174;9.798;2023-07-13T09:36:57;2.53;;;0.90;;
27313;SDS011;14800;48.174;9.798;2023-07-13T09:39:33;2.25;;;1.00;;
27313;SDS011;14800;48.174;9.798;2023-07-13T09:42:20;1.63;;;0.90;;
27313;SDS011;14800;48.174;9.798;2023-07-13T09:47:19;3.03;;;0.80;;
27313;SDS011;14800;48.174;9.798;2023-07-13T09:49:55;4.20;;;1.10;;
27313;SDS011;14800;48.174;9.798;2023-07-13T09:52:25;2.00;;;0.83;;
27313;SDS011;14800;48.174;9.798;2023-07-13T09:54:52;2.30;;;0.77;;
27313;SDS011;14800;48.174;9.798;2023-07-13T09:57:24;1.95;;;0.80;;
27313;SDS011;14800;48.174;9.798;2023-07-13T09:59:53;4.07;;;1.00;;
27313;SDS011;14800;48.174;9.798;2023-07-13T10:05:01;1.60;;;0.93;;
27313;SDS011;14800;48.174;9.798;2023-07-13T10:07:29;2.40;;;0.70;;
27313;SDS011;14800;48.174;9.798;2023-07-13T10:09:56;1.25;;;0.80;;
27313;SDS011;14800;48.174;9.798;2023-07-13T10:12:25;4.30;;;1.15;;
27313;SDS011;14800;48.174;9.798;2023-07-13T10:14:56;2.65;;;0.70;;
27313;SDS011;14800;48.174;9.798;2023-07-13T10:17:27;2.17;;;0.80;;
27313;SDS011;14800;48.174;9.798;2023-07-13T10:19:56;2.67;;;0.90;;
27313;SDS011;14800;48.174;9.798;2023-07-13T10:22:44;0.90;;;0.70;;
27313;SDS011;14800;48.174;9.798;2023-07-13T10:25:25;2.03;;;0.85;;
27313;SDS011;14800;48.174;9.798;2023-07-13T10:27:54;1.52;;;0.70;;
27313;SDS011;14800;48.174;9.798;2023-07-13T10:30:27;2.28;;;1.00;;
27313;SDS011;14800;48.174;9.798;2023-07-13T10:33:00;2.08;;;0.80;;
27313;SDS011;14800;48.174;9.798;2023-07-13T10:35:28;1.73;;;0.90;;
27313;SDS011;14800;48.174;9.798;2023-07-13T10:37:56;1.23;;;0.80;;
27313;SDS011;14800;48.174;9.798;2023-07-13T10:40:40;2.28;;;0.73;;
27313;SDS011;14800;48.174;9.798;2023-07-13T10:43:16;2.20;;;0.80;;
27313;SDS011;14800;48.174;9.798;2023-07-13T10:45:45;2.15;;;0.98;;
27313;SDS011;14800;48.174;9.798;2023-07-13T10:48:15;3.53;;;0.90;;
27313;SDS011;14800;48.174;9.798;2023-07-13T10:50:43;3.25;;;0.80;;
27313;SDS011;14800;48.174;9.798;2023-07-13T10:58:15;2.55;;;0.63;;
27313;SDS011;14800;48.174;9.798;2023-07-13T11:00:46;5.82;;;0.90;;
27313;SDS011;14800;48.174;9.798;2023-07-13T11:03:24;1.20;;;0.70;;
27313;SDS011;14800;48.174;9.798;2023-07-13T11:06:04;0.75;;;0.50;;
27313;SDS011;14800;48.174;9.798;2023-07-13T11:08:52;2.00;;;0.98;;
27313;SDS011;14800;48.174;9.798;2023-07-13T11:11:31;1.65;;;0.70;;
27313;SDS011;14800;48.174;9.798;2023-07-13T11:14:00;1.27;;;0.82;;
27313;SDS011;14800;48.174;9.798;2023-07-13T11:16:51;1.20;;;0.60;;
27313;SDS011;14800;48.174;9.798;2023-07-13T11:30:23;1.48;;;0.77;;
27313;SDS011;14800;48.174;9.798;2023-07-13T11:36:00;2.75;;;0.70;;
27313;SDS011;14800;48.174;9.798;2023-07-13T11:41:15;5.25;;;0.70;;
27313;SDS011;14800;48.174;9.798;2023-07-13T11:43:43;2.08;;;0.80;;
27313;SDS011;14800;48.174;9.798;2023-07-13T11:46:14;1.65;;;0.85;;
27313;SDS011;14800;48.174;9.798;2023-07-13T11:48:41;1.33;;;0.90;;
27313;SDS011;14800;48.174;9.798;2023-07-13T11:51:09;1.58;;;0.70;;
27313;SDS011;14800;48.174;9.798;2023-07-13T11:53:45;1.70;;;0.60;;
27313;SDS011;14800;48.174;9.798;2023-07-13T11:56:12;3.03;;;0.68;;
27313;SDS011;14800;48.174;9.798;2023-07-13T11:58:38;1.85;;;0.73;;
27313;SDS011;14800;48.174;9.798;2023-07-13T12:01:10;4.78;;;0.85;;
27313;SDS011;14800;48.174;9.798;2023-07-13T12:03:51;5.55;;;1.10;;
27313;SDS011;14800;48.174;9.798;2023-07-13T12:06:26;1.55;;;0.90;;
27313;SDS011;14800;48.174;9.798;2023-07-13T12:08:58;3.63;;;0.70;;
27313;SDS011;14800;48.174;9.798;2023-07-13T12:11:25;2.35;;;0.85;;
27313;SDS011;14800;48.174;9.798;2023-07-13T12:13:51;1.90;;;0.90;;
27313;SDS011;14800;48.174;9.798;2023-07-13T12:16:22;1.98;;;0.82;;
27313;SDS011;14800;48.174;9.798;2023-07-13T12:18:55;2.28;;;1.20;;
27313;SDS011;14800;48.174;9.798;2023-07-13T12:21:23;2.53;;;1.00;;
27313;SDS011;14800;48.174;9.798;2023-07-13T12:24:02;3.55;;;0.90;;
27313;SDS011;14800;48.174;9.798;2023-07-13T12:26:29;1.17;;;0.88;;
27313;SDS011;14800;48.174;9.798;2023-07-13T12:28:58;3.53;;;0.75;;
27313;SDS011;14800;48.174;9.798;2023-07-13T12:33:56;2.97;;;0.82;;
27313;SDS011;14800;48.174;9.798;2023-07-13T12:36:23;2.65;;;1.00;;
27313;SDS011;14800;48.174;9.798;2023-07-13T12:38:50;3.53;;;0.95;;
27313;SDS011;14800;48.174;9.798;2023-07-13T12:41:16;3.00;;;1.17;;
27313;SDS011;14800;48.174;9.798;2023-07-13T12:43:42;2.00;;;0.80;;
27313;SDS011;14800;48.174;9.798;2023-07-13T12:46:17;1.75;;;0.90;;
27313;SDS011;14800;48.174;9.798;2023-07-13T12:48:52;2.03;;;1.08;;
27313;SDS011;14800;48.174;9.798;2023-07-13T12:51:21;3.10;;;0.90;;
27313;SDS011;14800;48.174;9.798;2023-07-13T12:53:48;4.25;;;0.85;;
27313;SDS011;14800;48.174;9.798;2023-07-13T12:56:19;2.30;;;0.90;;
27313;SDS011;14800;48.174;9.798;2023-07-13T12:58:47;2.25;;;0.98;;
27313;SDS011;14800;48.174;9.798;2023-07-13T13:01:19;3.78;;;1.10;;
27313;SDS011;14800;48.174;9.798;2023-07-13T13:03:52;2.03;;;0.88;;
27313;SDS011;14800;48.174;9.798;2023-07-13T13:06:22;5.88;;;1.10;;
27313;SDS011;14800;48.174;9.798;2023-07-13T13:08:51;4.35;;;1.10;;
27313;SDS011;14800;48.174;9.798;2023-07-13T13:11:20;3.58;;;0.95;;
27313;SDS011;14800;48.174;9.798;2023-07-13T13:13:48;6.60;;;0.93;;
27313;SDS011;14800;48.174;9.798;2023-07-13T13:16:26;3.47;;;1.17;;
27313;SDS011;14800;48.174;9.798;2023-07-13T13:19:01;3.10;;;1.00;;
27313;SDS011;14800;48.174;9.798;2023-07-13T13:21:47;1.42;;;0.90;;
27313;SDS011;14800;48.174;9.798;2023-07-13T13:24:16;3.28;;;0.98;;
27313;SDS011;14800;48.174;9.798;2023-07-13T13:26:43;8.00;;;1.00;;
27313;SDS011;14800;48.174;9.798;2023-07-13T13:29:18;2.40;;;0.90;;
27313;SDS011;14800;48.174;9.798;2023-07-13T13:31:46;2.25;;;0.85;;
27313;SDS011;14800;48.174;9.798;2023-07-13T13:34:13;1.88;;;0.93;;
27313;SDS011;14800;48.174;9.798;2023-07-13T13:36:41;2.63;;;1.10;;
27313;SDS011;14800;48.174;9.798;2023-07-13T13:39:15;2.20;;;1.10;;
27313;SDS011;14800;48.174;9.798;2023-07-13T13:41:49;0.73;;;0.68;;
27313;SDS011;14800;48.174;9.798;2023-07-13T13:44:16;2.75;;;0.93;;
27313;SDS011;14800;48.174;9.798;2023-07-13T13:46:43;3.00;;;1.30;;
27313;SDS011;14800;48.174;9.798;2023-07-13T13:49:14;2.53;;;0.85;;
27313;SDS011;14800;48.174;9.798;2023-07-13T13:51:44;2.83;;;0.90;;
27313;SDS011;14800;48.174;9.798;2023-07-13T13:54:11;1.98;;;0.88;;
27313;SDS011;14800;48.174;9.798;2023-07-13T13:56:44;3.97;;;1.20;;
27313;SDS011;14800;48.174;9.798;2023-07-13T13:59:11;2.45;;;0.93;;
27313;SDS011;14800;48.174;9.798;2023-07-13T14:01:37;2.17;;;1.00;;
27313;SDS011;14800;48.174;9.798;2023-07-13T14:04:04;2.13;;;0.90;;
27313;SDS011;14800;48.174;9.798;2023-07-13T14:06:31;2.50;;;0.82;;
27313;SDS011;14800;48.174;9.798;2023-07-13T14:08:57;3.85;;;0.90;;
27313;SDS011;14800;48.174;9.798;2023-07-13T14:11:24;1.40;;;0.73;;
27313;SDS011;14800;48.174;9.798;2023-07-13T14:13:59;4.50;;;1.10;;
27313;SDS011;14800;48.174;9.798;2023-07-13T14:16:26;3.35;;;1.13;;
27313;SDS011;14800;48.174;9.798;2023-07-13T14:18:54;2.72;;;0.93;;
27313;SDS011;14800;48.174;9.798;2023-07-13T14:21:23;2.70;;;0.95;;
27313;SDS011;14800;48.174;9.798;2023-07-13T14:23:49;6.03;;;1.27;;
27313;SDS011;14800;48.174;9.798;2023-07-13T14:26:22;2.13;;;1.13;;
27313;SDS011;14800;48.174;9.798;2023-07-13T14:28:51;2.78;;;0.73;;
27313;SDS011;14800;48.174;9.798;2023-07-13T14:31:22;3.70;;;1.10;;
27313;SDS011;14800;48.174;9.798;2023-07-13T14:33:54;1.55;;;1.05;;
27313;SDS011;14800;48.174;9.798;2023-07-13T14:36:32;2.55;;;0.90;;
27313;SDS011;14800;48.174;9.798;2023-07-13T14:39:05;1.98;;;0.85;;
27313;SDS011;14800;48.174;9.798;2023-07-13T14:41:56;2.35;;;1.08;;
27313;SDS011;14800;48.174;9.798;2023-07-13T14:44:29;1.55;;;0.90;;
27313;SDS011;14800;48.174;9.798;2023-07-13T14:47:00;2.38;;;1.23;;
27313;SDS011;14800;48.174;9.798;2023-07-13T14:49:32;3.83;;;1.10;;
27313;SDS011;14800;48.174;9.798;2023-07-13T14:52:05;1.90;;;0.90;;
27313;SDS011;14800;48.174;9.798;2023-07-13T14:54:47;4.18;;;0.90;;
27313;SDS011;14800;48.174;9.798;2023-07-13T14:57:13;1.75;;;0.90;;
27313;SDS011;14800;48.174;9.798;2023-07-13T14:59:41;2.13;;;1.00;;
27313;SDS011;14800;48.174;9.798;2023-07-13T15:02:17;2.05;;;1.00;;
27313;SDS011;14800;48.174;9.798;2023-07-13T15:04:44;2.17;;;0.90;;
27313;SDS011;14800;48.174;9.798;2023-07-13T15:07:10;1.48;;;1.00;;
27313;SDS011;14800;48.174;9.798;2023-07-13T15:09:36;3.17;;;0.98;;
27313;SDS011;14800;48.174;9.798;2023-07-13T15:12:02;1.50;;;1.08;;
27313;SDS011;14800;48.174;9.798;2023-07-13T15:14:30;3.38;;;1.30;;
27313;SDS011;14800;48.174;9.798;2023-07-13T15:16:56;7.28;;;1.00;;
27313;SDS011;14800;48.174;9.798;2023-07-13T15:19:21;2.78;;;1.00;;
27313;SDS011;14800;48.174;9.798;2023-07-13T15:21:48;1.67;;;1.08;;
27313;SDS011;14800;48.174;9.798;2023-07-13T15:24:15;2.38;;;0.95;;
27313;SDS011;14800;48.174;9.798;2023-07-13T15:26:41;3.08;;;1.00;;
27313;SDS011;14800;48.174;9.798;2023-07-13T15:29:11;2.08;;;1.40;;
27313;SDS011;14800;48.174;9.798;2023-07-13T15:31:37;3.53;;;1.10;;
27313;SDS011;14800;48.174;9.798;2023-07-13T15:34:07;4.00;;;1.00;;
27313;SDS011;14800;48.174;9.798;2023-07-13T15:36:42;2.25;;;1.10;;
27313;SDS011;14800;48.174;9.798;2023-07-13T15:39:09;3.00;;;0.95;;
27313;SDS011;14800;48.174;9.798;2023-07-13T15:41:40;1.70;;;1.00;;
27313;SDS011;14800;48.174;9.798;2023-07-13T15:44:20;1.88;;;0.98;;